sensor_id;sensor_type;location;lat;lon;timestamp;P1;durP1;ratioP1;P2;durP2;ratioP2
58643;SDS011;44411;49.994;8.660;2022-12-18T00:01:35;67.53;;;27.90;;
58643;SDS011;44411;49.994;8.660;2022-12-18T00:04:03;53.50;;;25.20;;
58643;SDS011;44411;49.994;8.660;2022-12-18T00:06:30;67.30;;;29.55;;
58643;SDS011;44411;49.994;8.660;2022-12-18T00:08:56;58.10;;;26.27;;
58643;SDS011;44411;49.994;8.660;2022-12-18T00:11:23;66.95;;;31.30;;
58643;SDS011;44411;49.994;8.660;2022-12-18T00:13:51;64.90;;;27.42;;
58643;SDS011;44411;49.994;8.660;2022-12-18T00:16:18;60.22;;;26.67;;
58643;SDS011;44411;49.994;8.660;2022-12-18T00:18:48;63.17;;;27.38;;
58643;SDS011;44411;49.994;8.660;2022-12-18T00:21:15;57.57;;;27.00;;
58643;SDS011;44411;49.994;8.660;2022-12-18T00:23:44;65.43;;;27.55;;
58643;SDS011;44411;49.994;8.660;2022-12-18T00:26:11;58.10;;;27.30;;
58643;SDS011;44411;49.994;8.660;2022-12-18T00:28:42;59.28;;;26.02;;
58643;SDS011;44411;49.994;8.660;2022-12-18T00:31:12;61.67;;;28.85;;
58643;SDS011;44411;49.994;8.660;2022-12-18T00:33:39;65.80;;;27.67;;
58643;SDS011;44411;49.994;8.660;2022-12-18T00:36:16;62.72;;;29.02;;
58643;SDS011;44411;49.994;8.660;2022-12-18T00:38:44;62.03;;;27.17;;
58643;SDS011;44411;49.994;8.660;2022-12-18T00:41:10;60.33;;;26.00;;
58643;SDS011;44411;49.994;8.660;2022-12-18T00:43:37;55.42;;;25.73;;
58643;SDS011;44411;49.994;8.660;2022-12-18T00:46:03;65.65;;;26.92;;
58643;SDS011;44411;49.994;8.660;2022-12-18T00:48:29;57.90;;;27.48;;
58643;SDS011;44411;49.994;8.660;2022-12-18T00:50:54;61.90;;;28.60;;
58643;SDS011;44411;49.994;8.660;2022-12-18T00:53:20;53.22;;;26.52;;
58643;SDS011;44411;49.994;8.660;2022-12-18T00:55:45;54.53;;;26.05;;
58643;SDS011;44411;49.994;8.660;2022-12-18T00:58:11;59.10;;;27.98;;
58643;SDS011;44411;49.994;8.660;2022-12-18T01:03:13;56.95;;;27.38;;
58643;SDS011;44411;49.994;8.660;2022-12-18T01:05:39;56.70;;;27.52;;
58643;SDS011;44411;49.994;8.660;2022-12-18T01:08:06;58.95;;;26.50;;
58643;SDS011;44411;49.994;8.660;2022-12-18T01:10:31;59.45;;;26.63;;
58643;SDS011;44411;49.994;8.660;2022-12-18T01:12:56;54.63;;;25.55;;
58643;SDS011;44411;49.994;8.660;2022-12-18T01:15:22;57.60;;;27.75;;
58643;SDS011;44411;49.994;8.660;2022-12-18T01:17:47;57.58;;;26.85;;
58643;SDS011;44411;49.994;8.660;2022-12-18T01:20:13;52.95;;;26.92;;
58643;SDS011;44411;49.994;8.660;2022-12-18T01:22:38;46.15;;;25.08;;
58643;SDS011;44411;49.994;8.660;2022-12-18T01:25:04;50.13;;;25.40;;
58643;SDS011;44411;49.994;8.660;2022-12-18T01:27:30;54.75;;;24.90;;
58643;SDS011;44411;49.994;8.660;2022-12-18T01:29:56;49.45;;;25.30;;
58643;SDS011;44411;49.994;8.660;2022-12-18T01:32:21;51.90;;;26.50;;
58643;SDS011;44411;49.994;8.660;2022-12-18T01:34:47;50.35;;;25.05;;
58643;SDS011;44411;49.994;8.660;2022-12-18T01:37:12;53.25;;;26.38;;
58643;SDS011;44411;49.994;8.660;2022-12-18T01:39:37;48.63;;;24.40;;
58643;SDS011;44411;49.994;8.660;2022-12-18T01:42:03;50.83;;;24.40;;
58643;SDS011;44411;49.994;8.660;2022-12-18T01:50:18;53.83;;;25.58;;
58643;SDS011;44411;49.994;8.660;2022-12-18T01:52:51;50.67;;;23.20;;
58643;SDS011;44411;49.994;8.660;2022-12-18T01:55:22;51.50;;;24.45;;
58643;SDS011;44411;49.994;8.660;2022-12-18T01:57:51;50.05;;;24.77;;
58643;SDS011;44411;49.994;8.660;2022-12-18T02:00:19;51.30;;;25.95;;
58643;SDS011;44411;49.994;8.660;2022-12-18T02:02:46;52.17;;;24.55;;
58643;SDS011;44411;49.994;8.660;2022-12-18T02:05:12;50.90;;;23.30;;
58643;SDS011;44411;49.994;8.660;2022-12-18T02:07:48;45.90;;;23.02;;
58643;SDS011;44411;49.994;8.660;2022-12-18T02:18:36;42.30;;;21.90;;
58643;SDS011;44411;49.994;8.660;2022-12-18T02:26:33;47.83;;;22.35;;
58643;SDS011;44411;49.994;8.660;2022-12-18T02:29:08;44.80;;;22.85;;
58643;SDS011;44411;49.994;8.660;2022-12-18T02:31:38;54.47;;;23.80;;
58643;SDS011;44411;49.994;8.660;2022-12-18T02:34:08;48.13;;;22.77;;
58643;SDS011;44411;49.994;8.660;2022-12-18T02:36:35;50.47;;;22.35;;
58643;SDS011;44411;49.994;8.660;2022-12-18T02:39:03;46.42;;;23.27;;
58643;SDS011;44411;49.994;8.660;2022-12-18T02:41:30;41.78;;;20.63;;
58643;SDS011;44411;49.994;8.660;2022-12-18T02:43:57;39.67;;;21.67;;
58643;SDS011;44411;49.994;8.660;2022-12-18T02:46:31;45.92;;;23.65;;
58643;SDS011;44411;49.994;8.660;2022-12-18T02:54:54;42.70;;;21.25;;
58643;SDS011;44411;49.994;8.660;2022-12-18T03:00:21;44.95;;;21.35;;
58643;SDS011;44411;49.994;8.660;2022-12-18T03:03:01;38.78;;;20.50;;
58643;SDS011;44411;49.994;8.660;2022-12-18T03:05:40;47.67;;;21.15;;
58643;SDS011;44411;49.994;8.660;2022-12-18T03:08:10;44.15;;;20.60;;
58643;SDS011;44411;49.994;8.660;2022-12-18T03:10:45;43.63;;;20.65;;
58643;SDS011;44411;49.994;8.660;2022-12-18T03:13:20;40.78;;;21.02;;
58643;SDS011;44411;49.994;8.660;2022-12-18T03:15:54;41.60;;;21.30;;
58643;SDS011;44411;49.994;8.660;2022-12-18T03:18:23;44.28;;;22.20;;
58643;SDS011;44411;49.994;8.660;2022-12-18T03:20:54;42.38;;;20.80;;
58643;SDS011;44411;49.994;8.660;2022-12-18T03:23:24;48.95;;;24.02;;
58643;SDS011;44411;49.994;8.660;2022-12-18T03:28:21;39.78;;;19.67;;
58643;SDS011;44411;49.994;8.660;2022-12-18T03:30:48;43.38;;;21.17;;
58643;SDS011;44411;49.994;8.660;2022-12-18T03:33:27;45.42;;;22.95;;
58643;SDS011;44411;49.994;8.660;2022-12-18T03:35:57;48.28;;;22.58;;
58643;SDS011;44411;49.994;8.660;2022-12-18T03:38:23;46.92;;;21.52;;
58643;SDS011;44411;49.994;8.660;2022-12-18T03:43:54;39.83;;;22.17;;
58643;SDS011;44411;49.994;8.660;2022-12-18T03:46:58;42.92;;;21.88;;
58643;SDS011;44411;49.994;8.660;2022-12-18T03:49:32;42.45;;;20.92;;
58643;SDS011;44411;49.994;8.660;2022-12-18T03:52:24;44.83;;;22.65;;
58643;SDS011;44411;49.994;8.660;2022-12-18T03:54:53;49.45;;;25.35;;
58643;SDS011;44411;49.994;8.660;2022-12-18T03:57:23;44.97;;;24.10;;
58643;SDS011;44411;49.994;8.660;2022-12-18T03:59:52;49.33;;;23.48;;
58643;SDS011;44411;49.994;8.660;2022-12-18T04:02:21;45.60;;;21.25;;
58643;SDS011;44411;49.994;8.660;2022-12-18T04:04:48;47.45;;;24.48;;
58643;SDS011;44411;49.994;8.660;2022-12-18T04:07:21;44.17;;;21.92;;
58643;SDS011;44411;49.994;8.660;2022-12-18T04:09:48;46.00;;;21.73;;
58643;SDS011;44411;49.994;8.660;2022-12-18T04:12:15;42.00;;;22.33;;
58643;SDS011;44411;49.994;8.660;2022-12-18T04:14:41;43.38;;;23.60;;
58643;SDS011;44411;49.994;8.660;2022-12-18T04:17:06;45.67;;;20.52;;
58643;SDS011;44411;49.994;8.660;2022-12-18T04:19:31;48.83;;;22.27;;
58643;SDS011;44411;49.994;8.660;2022-12-18T04:21:57;38.42;;;21.48;;
58643;SDS011;44411;49.994;8.660;2022-12-18T04:24:22;42.58;;;22.98;;
58643;SDS011;44411;49.994;8.660;2022-12-18T04:26:47;49.40;;;22.73;;
58643;SDS011;44411;49.994;8.660;2022-12-18T04:29:13;41.88;;;20.85;;
58643;SDS011;44411;49.994;8.660;2022-12-18T04:31:38;46.70;;;21.50;;
58643;SDS011;44411;49.994;8.660;2022-12-18T04:34:03;49.13;;;23.45;;
58643;SDS011;44411;49.994;8.660;2022-12-18T04:36:29;45.00;;;23.17;;
58643;SDS011;44411;49.994;8.660;2022-12-18T04:38:55;40.10;;;23.15;;
58643;SDS011;44411;49.994;8.660;2022-12-18T04:41:20;45.78;;;22.00;;
58643;SDS011;44411;49.994;8.660;2022-12-18T04:43:46;43.75;;;20.98;;
58643;SDS011;44411;49.994;8.660;2022-12-18T04:46:11;42.35;;;20.73;;
58643;SDS011;44411;49.994;8.660;2022-12-18T04:48:36;42.75;;;22.15;;
58643;SDS011;44411;49.994;8.660;2022-12-18T04:51:03;40.10;;;20.83;;
58643;SDS011;44411;49.994;8.660;2022-12-18T04:53:29;38.33;;;20.02;;
58643;SDS011;44411;49.994;8.660;2022-12-18T04:56:08;43.38;;;20.92;;
58643;SDS011;44411;49.994;8.660;2022-12-18T04:58:36;44.03;;;21.92;;
58643;SDS011;44411;49.994;8.660;2022-12-18T05:01:02;41.38;;;20.25;;
58643;SDS011;44411;49.994;8.660;2022-12-18T05:03:28;41.67;;;20.73;;
58643;SDS011;44411;49.994;8.660;2022-12-18T05:05:53;45.10;;;20.95;;
58643;SDS011;44411;49.994;8.660;2022-12-18T05:08:19;37.47;;;18.35;;
58643;SDS011;44411;49.994;8.660;2022-12-18T05:10:44;43.80;;;21.05;;
58643;SDS011;44411;49.994;8.660;2022-12-18T05:13:09;40.45;;;18.95;;
58643;SDS011;44411;49.994;8.660;2022-12-18T05:15:35;34.95;;;18.20;;
58643;SDS011;44411;49.994;8.660;2022-12-18T05:18:00;43.78;;;20.70;;
58643;SDS011;44411;49.994;8.660;2022-12-18T05:20:27;36.78;;;19.13;;
58643;SDS011;44411;49.994;8.660;2022-12-18T05:22:53;40.25;;;19.77;;
58643;SDS011;44411;49.994;8.660;2022-12-18T05:25:19;36.55;;;19.10;;
58643;SDS011;44411;49.994;8.660;2022-12-18T05:27:45;37.75;;;19.67;;
58643;SDS011;44411;49.994;8.660;2022-12-18T05:30:11;39.45;;;21.02;;
58643;SDS011;44411;49.994;8.660;2022-12-18T05:32:37;44.72;;;20.20;;
58643;SDS011;44411;49.994;8.660;2022-12-18T05:35:03;38.60;;;19.20;;
58643;SDS011;44411;49.994;8.660;2022-12-18T05:37:29;45.40;;;22.40;;
58643;SDS011;44411;49.994;8.660;2022-12-18T05:39:55;39.75;;;19.20;;
58643;SDS011;44411;49.994;8.660;2022-12-18T05:42:20;48.10;;;21.50;;
58643;SDS011;44411;49.994;8.660;2022-12-18T05:44:45;43.47;;;20.92;;
58643;SDS011;44411;49.994;8.660;2022-12-18T05:47:11;36.80;;;19.88;;
58643;SDS011;44411;49.994;8.660;2022-12-18T05:49:36;42.40;;;20.30;;
58643;SDS011;44411;49.994;8.660;2022-12-18T05:52:01;37.10;;;20.60;;
58643;SDS011;44411;49.994;8.660;2022-12-18T05:54:27;44.17;;;20.80;;
58643;SDS011;44411;49.994;8.660;2022-12-18T05:56:52;49.78;;;21.27;;
58643;SDS011;44411;49.994;8.660;2022-12-18T05:59:18;40.22;;;19.58;;
58643;SDS011;44411;49.994;8.660;2022-12-18T06:01:44;42.35;;;20.45;;
58643;SDS011;44411;49.994;8.660;2022-12-18T06:04:09;45.17;;;19.40;;
58643;SDS011;44411;49.994;8.660;2022-12-18T06:06:34;41.80;;;19.42;;
58643;SDS011;44411;49.994;8.660;2022-12-18T06:09:00;42.25;;;19.65;;
58643;SDS011;44411;49.994;8.660;2022-12-18T06:11:26;44.58;;;20.38;;
58643;SDS011;44411;49.994;8.660;2022-12-18T06:13:52;41.95;;;20.10;;
58643;SDS011;44411;49.994;8.660;2022-12-18T06:16:19;42.15;;;19.88;;
58643;SDS011;44411;49.994;8.660;2022-12-18T06:18:45;40.70;;;19.00;;
58643;SDS011;44411;49.994;8.660;2022-12-18T06:21:10;38.65;;;20.75;;
58643;SDS011;44411;49.994;8.660;2022-12-18T06:23:36;49.78;;;22.85;;
58643;SDS011;44411;49.994;8.660;2022-12-18T06:26:05;38.22;;;19.15;;
58643;SDS011;44411;49.994;8.660;2022-12-18T06:28:32;42.95;;;20.58;;
58643;SDS011;44411;49.994;8.660;2022-12-18T06:30:57;40.58;;;21.05;;
58643;SDS011;44411;49.994;8.660;2022-12-18T06:33:25;41.65;;;21.10;;
58643;SDS011;44411;49.994;8.660;2022-12-18T06:35:52;41.60;;;19.97;;
58643;SDS011;44411;49.994;8.660;2022-12-18T06:38:17;41.28;;;20.63;;
58643;SDS011;44411;49.994;8.660;2022-12-18T06:40:42;41.92;;;21.02;;
58643;SDS011;44411;49.994;8.660;2022-12-18T06:43:08;38.30;;;20.63;;
58643;SDS011;44411;49.994;8.660;2022-12-18T06:45:33;47.72;;;20.98;;
58643;SDS011;44411;49.994;8.660;2022-12-18T06:47:58;45.60;;;20.90;;
58643;SDS011;44411;49.994;8.660;2022-12-18T06:50:24;44.92;;;23.25;;
58643;SDS011;44411;49.994;8.660;2022-12-18T06:52:49;45.17;;;20.88;;
58643;SDS011;44411;49.994;8.660;2022-12-18T06:55:14;47.70;;;22.45;;
58643;SDS011;44411;49.994;8.660;2022-12-18T06:57:40;36.67;;;20.75;;
58643;SDS011;44411;49.994;8.660;2022-12-18T07:00:05;36.65;;;19.85;;
58643;SDS011;44411;49.994;8.660;2022-12-18T07:02:32;43.10;;;21.55;;
58643;SDS011;44411;49.994;8.660;2022-12-18T07:04:57;44.25;;;21.63;;
58643;SDS011;44411;49.994;8.660;2022-12-18T07:07:22;41.42;;;21.92;;
58643;SDS011;44411;49.994;8.660;2022-12-18T07:09:51;41.83;;;20.88;;
58643;SDS011;44411;49.994;8.660;2022-12-18T07:12:16;42.40;;;21.58;;
58643;SDS011;44411;49.994;8.660;2022-12-18T07:14:41;43.90;;;22.73;;
58643;SDS011;44411;49.994;8.660;2022-12-18T07:17:07;43.85;;;21.52;;
58643;SDS011;44411;49.994;8.660;2022-12-18T07:19:32;42.85;;;22.50;;
58643;SDS011;44411;49.994;8.660;2022-12-18T07:21:58;46.50;;;21.05;;
58643;SDS011;44411;49.994;8.660;2022-12-18T07:24:23;45.55;;;21.98;;
58643;SDS011;44411;49.994;8.660;2022-12-18T07:26:49;44.63;;;21.20;;
58643;SDS011;44411;49.994;8.660;2022-12-18T07:29:14;42.58;;;21.23;;
58643;SDS011;44411;49.994;8.660;2022-12-18T07:31:39;42.30;;;22.92;;
58643;SDS011;44411;49.994;8.660;2022-12-18T07:34:05;42.15;;;20.40;;
58643;SDS011;44411;49.994;8.660;2022-12-18T07:36:30;42.72;;;23.02;;
58643;SDS011;44411;49.994;8.660;2022-12-18T07:38:55;47.28;;;22.77;;
58643;SDS011;44411;49.994;8.660;2022-12-18T07:41:21;44.67;;;24.05;;
58643;SDS011;44411;49.994;8.660;2022-12-18T07:43:47;48.35;;;24.20;;
58643;SDS011;44411;49.994;8.660;2022-12-18T07:46:13;48.10;;;23.30;;
58643;SDS011;44411;49.994;8.660;2022-12-18T07:48:40;51.75;;;24.83;;
58643;SDS011;44411;49.994;8.660;2022-12-18T07:51:06;45.28;;;24.42;;
58643;SDS011;44411;49.994;8.660;2022-12-18T07:53:32;51.10;;;25.65;;
58643;SDS011;44411;49.994;8.660;2022-12-18T07:56:00;44.28;;;25.50;;
58643;SDS011;44411;49.994;8.660;2022-12-18T07:58:28;46.83;;;24.67;;
58643;SDS011;44411;49.994;8.660;2022-12-18T08:00:53;49.00;;;26.10;;
58643;SDS011;44411;49.994;8.660;2022-12-18T08:03:19;51.17;;;26.58;;
58643;SDS011;44411;49.994;8.660;2022-12-18T08:05:44;58.08;;;29.55;;
58643;SDS011;44411;49.994;8.660;2022-12-18T08:08:10;54.33;;;29.70;;
58643;SDS011;44411;49.994;8.660;2022-12-18T08:10:35;56.92;;;28.50;;
58643;SDS011;44411;49.994;8.660;2022-12-18T08:13:01;58.72;;;30.73;;
58643;SDS011;44411;49.994;8.660;2022-12-18T08:15:27;58.00;;;31.02;;
58643;SDS011;44411;49.994;8.660;2022-12-18T08:17:52;58.30;;;30.45;;
58643;SDS011;44411;49.994;8.660;2022-12-18T08:20:21;55.15;;;30.30;;
58643;SDS011;44411;49.994;8.660;2022-12-18T08:22:46;54.15;;;30.98;;
58643;SDS011;44411;49.994;8.660;2022-12-18T08:25:12;62.13;;;30.25;;
58643;SDS011;44411;49.994;8.660;2022-12-18T08:27:37;49.30;;;26.08;;
58643;SDS011;44411;49.994;8.660;2022-12-18T08:30:03;42.03;;;24.50;;
58643;SDS011;44411;49.994;8.660;2022-12-18T08:32:29;47.22;;;25.17;;
58643;SDS011;44411;49.994;8.660;2022-12-18T08:34:54;50.40;;;26.77;;
58643;SDS011;44411;49.994;8.660;2022-12-18T08:37:20;51.13;;;26.42;;
58643;SDS011;44411;49.994;8.660;2022-12-18T08:39:45;48.30;;;26.95;;
58643;SDS011;44411;49.994;8.660;2022-12-18T08:42:10;52.33;;;29.80;;
58643;SDS011;44411;49.994;8.660;2022-12-18T08:44:54;55.00;;;29.27;;
58643;SDS011;44411;49.994;8.660;2022-12-18T08:47:19;55.92;;;30.05;;
58643;SDS011;44411;49.994;8.660;2022-12-18T08:49:45;61.50;;;32.80;;
58643;SDS011;44411;49.994;8.660;2022-12-18T08:52:10;60.55;;;33.97;;
58643;SDS011;44411;49.994;8.660;2022-12-18T08:54:36;59.55;;;33.05;;
58643;SDS011;44411;49.994;8.660;2022-12-18T08:57:01;65.57;;;33.88;;
58643;SDS011;44411;49.994;8.660;2022-12-18T08:59:27;59.47;;;33.80;;
58643;SDS011;44411;49.994;8.660;2022-12-18T09:01:54;65.82;;;36.45;;
58643;SDS011;44411;49.994;8.660;2022-12-18T09:04:20;62.72;;;32.88;;
58643;SDS011;44411;49.994;8.660;2022-12-18T09:06:46;62.25;;;34.60;;
58643;SDS011;44411;49.994;8.660;2022-12-18T09:09:11;63.50;;;34.65;;
58643;SDS011;44411;49.994;8.660;2022-12-18T09:11:37;64.63;;;34.50;;
58643;SDS011;44411;49.994;8.660;2022-12-18T09:14:03;70.32;;;37.20;;
58643;SDS011;44411;49.994;8.660;2022-12-18T09:16:28;65.28;;;33.53;;
58643;SDS011;44411;49.994;8.660;2022-12-18T09:18:55;62.85;;;35.53;;
58643;SDS011;44411;49.994;8.660;2022-12-18T09:21:24;63.28;;;35.17;;
58643;SDS011;44411;49.994;8.660;2022-12-18T09:23:51;63.22;;;35.95;;
58643;SDS011;44411;49.994;8.660;2022-12-18T09:26:18;58.67;;;35.08;;
58643;SDS011;44411;49.994;8.660;2022-12-18T09:28:43;63.97;;;34.40;;
58643;SDS011;44411;49.994;8.660;2022-12-18T09:31:10;64.78;;;35.50;;
58643;SDS011;44411;49.994;8.660;2022-12-18T09:33:40;62.28;;;35.05;;
58643;SDS011;44411;49.994;8.660;2022-12-18T09:36:07;65.03;;;36.08;;
58643;SDS011;44411;49.994;8.660;2022-12-18T09:38:34;72.35;;;39.40;;
58643;SDS011;44411;49.994;8.660;2022-12-18T09:42:00;59.22;;;36.28;;
58643;SDS011;44411;49.994;8.660;2022-12-18T09:47:10;69.20;;;38.67;;
58643;SDS011;44411;49.994;8.660;2022-12-18T09:49:40;66.72;;;37.38;;
58643;SDS011;44411;49.994;8.660;2022-12-18T09:52:11;69.38;;;39.35;;
58643;SDS011;44411;49.994;8.660;2022-12-18T09:54:42;66.35;;;37.72;;
58643;SDS011;44411;49.994;8.660;2022-12-18T09:57:22;62.55;;;36.13;;
58643;SDS011;44411;49.994;8.660;2022-12-18T09:59:56;66.53;;;33.15;;
58643;SDS011;44411;49.994;8.660;2022-12-18T10:02:30;55.63;;;31.33;;
58643;SDS011;44411;49.994;8.660;2022-12-18T10:05:05;63.55;;;34.10;;
58643;SDS011;44411;49.994;8.660;2022-12-18T10:07:42;61.70;;;33.78;;
58643;SDS011;44411;49.994;8.660;2022-12-18T10:18:33;54.03;;;29.85;;
58643;SDS011;44411;49.994;8.660;2022-12-18T10:21:03;64.28;;;34.63;;
58643;SDS011;44411;49.994;8.660;2022-12-18T10:23:39;63.13;;;35.67;;
58643;SDS011;44411;49.994;8.660;2022-12-18T10:26:09;54.88;;;30.80;;
58643;SDS011;44411;49.994;8.660;2022-12-18T10:28:36;67.00;;;33.08;;
58643;SDS011;44411;49.994;8.660;2022-12-18T10:31:07;62.58;;;33.45;;
58643;SDS011;44411;49.994;8.660;2022-12-18T10:33:39;58.97;;;32.20;;
58643;SDS011;44411;49.994;8.660;2022-12-18T10:36:04;59.92;;;31.13;;
58643;SDS011;44411;49.994;8.660;2022-12-18T10:38:31;60.60;;;31.38;;
58643;SDS011;44411;49.994;8.660;2022-12-18T10:41:01;62.67;;;30.95;;
58643;SDS011;44411;49.994;8.660;2022-12-18T10:43:38;60.40;;;31.55;;
58643;SDS011;44411;49.994;8.660;2022-12-18T10:51:04;60.92;;;34.70;;
58643;SDS011;44411;49.994;8.660;2022-12-18T10:53:31;60.17;;;31.38;;
58643;SDS011;44411;49.994;8.660;2022-12-18T10:55:59;54.83;;;30.63;;
58643;SDS011;44411;49.994;8.660;2022-12-18T10:58:25;62.67;;;32.38;;
58643;SDS011;44411;49.994;8.660;2022-12-18T11:06:04;57.72;;;31.40;;
58643;SDS011;44411;49.994;8.660;2022-12-18T11:08:40;60.42;;;31.23;;
58643;SDS011;44411;49.994;8.660;2022-12-18T11:11:19;60.03;;;32.15;;
58643;SDS011;44411;49.994;8.660;2022-12-18T11:13:52;59.65;;;29.88;;
58643;SDS011;44411;49.994;8.660;2022-12-18T11:16:26;62.65;;;31.98;;
58643;SDS011;44411;49.994;8.660;2022-12-18T11:18:52;63.15;;;30.83;;
58643;SDS011;44411;49.994;8.660;2022-12-18T11:21:17;62.78;;;32.00;;
58643;SDS011;44411;49.994;8.660;2022-12-18T11:23:47;58.72;;;30.45;;
58643;SDS011;44411;49.994;8.660;2022-12-18T11:26:16;59.30;;;30.35;;
58643;SDS011;44411;49.994;8.660;2022-12-18T11:28:52;59.72;;;29.90;;
58643;SDS011;44411;49.994;8.660;2022-12-18T11:31:40;53.35;;;28.63;;
58643;SDS011;44411;49.994;8.660;2022-12-18T11:34:13;61.00;;;28.75;;
58643;SDS011;44411;49.994;8.660;2022-12-18T11:36:47;66.18;;;30.65;;
58643;SDS011;44411;49.994;8.660;2022-12-18T11:39:46;58.28;;;30.30;;
58643;SDS011;44411;49.994;8.660;2022-12-18T11:42:38;60.92;;;30.50;;
58643;SDS011;44411;49.994;8.660;2022-12-18T11:50:31;49.97;;;27.33;;
58643;SDS011;44411;49.994;8.660;2022-12-18T11:53:17;52.63;;;27.15;;
58643;SDS011;44411;49.994;8.660;2022-12-18T11:56:27;52.53;;;26.70;;
58643;SDS011;44411;49.994;8.660;2022-12-18T11:58:52;51.53;;;26.58;;
58643;SDS011;44411;49.994;8.660;2022-12-18T12:08:15;52.28;;;28.33;;
58643;SDS011;44411;49.994;8.660;2022-12-18T12:10:27;53.70;;;27.95;;
58643;SDS011;44411;49.994;8.660;2022-12-18T12:16:16;53.55;;;26.92;;
58643;SDS011;44411;49.994;8.660;2022-12-18T12:21:41;56.30;;;28.00;;
58643;SDS011;44411;49.994;8.660;2022-12-18T12:24:49;56.33;;;27.38;;
58643;SDS011;44411;49.994;8.660;2022-12-18T12:32:37;54.22;;;26.20;;
58643;SDS011;44411;49.994;8.660;2022-12-18T12:35:29;60.33;;;29.23;;
58643;SDS011;44411;49.994;8.660;2022-12-18T12:38:14;54.55;;;28.10;;
58643;SDS011;44411;49.994;8.660;2022-12-18T12:40:54;55.80;;;27.70;;
58643;SDS011;44411;49.994;8.660;2022-12-18T12:46:10;54.03;;;25.88;;
58643;SDS011;44411;49.994;8.660;2022-12-18T12:48:41;55.33;;;26.67;;
58643;SDS011;44411;49.994;8.660;2022-12-18T12:51:31;49.95;;;25.70;;
58643;SDS011;44411;49.994;8.660;2022-12-18T12:53:59;54.40;;;25.85;;
58643;SDS011;44411;49.994;8.660;2022-12-18T12:56:36;58.30;;;28.98;;
58643;SDS011;44411;49.994;8.660;2022-12-18T12:59:14;55.00;;;27.27;;
58643;SDS011;44411;49.994;8.660;2022-12-18T13:04:38;54.28;;;26.85;;
58643;SDS011;44411;49.994;8.660;2022-12-18T13:18:11;51.95;;;25.75;;
58643;SDS011;44411;49.994;8.660;2022-12-18T13:25:50;53.83;;;26.77;;
58643;SDS011;44411;49.994;8.660;2022-12-18T13:29:02;54.75;;;26.65;;
58643;SDS011;44411;49.994;8.660;2022-12-18T13:38:41;60.08;;;27.33;;
58643;SDS011;44411;49.994;8.660;2022-12-18T13:43:43;57.72;;;28.95;;
58643;SDS011;44411;49.994;8.660;2022-12-18T13:46:23;53.03;;;26.83;;
58643;SDS011;44411;49.994;8.660;2022-12-18T13:51:43;55.22;;;26.17;;
58643;SDS011;44411;49.994;8.660;2022-12-18T13:57:01;56.90;;;26.38;;
58643;SDS011;44411;49.994;8.660;2022-12-18T14:02:00;57.78;;;26.38;;
58643;SDS011;44411;49.994;8.660;2022-12-18T14:04:37;51.80;;;25.13;;
58643;SDS011;44411;49.994;8.660;2022-12-18T14:09:36;53.13;;;25.65;;
58643;SDS011;44411;49.994;8.660;2022-12-18T14:12:05;56.85;;;28.85;;
58643;SDS011;44411;49.994;8.660;2022-12-18T14:14:50;59.33;;;26.58;;
58643;SDS011;44411;49.994;8.660;2022-12-18T14:17:18;55.92;;;27.25;;
58643;SDS011;44411;49.994;8.660;2022-12-18T14:19:48;52.42;;;25.23;;
58643;SDS011;44411;49.994;8.660;2022-12-18T14:22:25;54.80;;;26.45;;
58643;SDS011;44411;49.994;8.660;2022-12-18T14:27:42;56.35;;;26.88;;
58643;SDS011;44411;49.994;8.660;2022-12-18T14:35:43;60.42;;;28.40;;
58643;SDS011;44411;49.994;8.660;2022-12-18T14:41:11;55.78;;;25.95;;
58643;SDS011;44411;49.994;8.660;2022-12-18T14:43:39;58.35;;;26.60;;
58643;SDS011;44411;49.994;8.660;2022-12-18T14:48:55;50.92;;;26.00;;
58643;SDS011;44411;49.994;8.660;2022-12-18T14:51:22;48.42;;;23.95;;
58643;SDS011;44411;49.994;8.660;2022-12-18T14:53:56;53.42;;;27.85;;
58643;SDS011;44411;49.994;8.660;2022-12-18T14:56:36;56.03;;;26.38;;
58643;SDS011;44411;49.994;8.660;2022-12-18T14:59:18;54.33;;;25.60;;
58643;SDS011;44411;49.994;8.660;2022-12-18T15:07:02;50.72;;;25.55;;
58643;SDS011;44411;49.994;8.660;2022-12-18T15:10:02;50.72;;;25.63;;
58643;SDS011;44411;49.994;8.660;2022-12-18T15:20:40;55.90;;;26.90;;
58643;SDS011;44411;49.994;8.660;2022-12-18T15:26:04;54.17;;;26.15;;
58643;SDS011;44411;49.994;8.660;2022-12-18T15:31:26;52.60;;;26.77;;
58643;SDS011;44411;49.994;8.660;2022-12-18T15:36:19;52.03;;;24.95;;
58643;SDS011;44411;49.994;8.660;2022-12-18T15:38:47;54.97;;;27.30;;
58643;SDS011;44411;49.994;8.660;2022-12-18T15:41:14;58.17;;;28.73;;
58643;SDS011;44411;49.994;8.660;2022-12-18T15:43:41;55.72;;;27.85;;
58643;SDS011;44411;49.994;8.660;2022-12-18T15:48:54;57.00;;;26.33;;
58643;SDS011;44411;49.994;8.660;2022-12-18T15:51:22;58.22;;;29.08;;
58643;SDS011;44411;49.994;8.660;2022-12-18T15:53:52;56.67;;;29.77;;
58643;SDS011;44411;49.994;8.660;2022-12-18T15:56:20;61.42;;;27.85;;
58643;SDS011;44411;49.994;8.660;2022-12-18T15:59:08;56.05;;;27.13;;
58643;SDS011;44411;49.994;8.660;2022-12-18T16:01:36;54.85;;;26.27;;
58643;SDS011;44411;49.994;8.660;2022-12-18T16:04:01;59.30;;;28.80;;
58643;SDS011;44411;49.994;8.660;2022-12-18T16:06:27;57.60;;;27.30;;
58643;SDS011;44411;49.994;8.660;2022-12-18T16:08:52;56.53;;;28.90;;
58643;SDS011;44411;49.994;8.660;2022-12-18T16:16:40;58.28;;;29.40;;
58643;SDS011;44411;49.994;8.660;2022-12-18T16:19:06;55.88;;;29.67;;
58643;SDS011;44411;49.994;8.660;2022-12-18T16:21:32;58.00;;;27.73;;
58643;SDS011;44411;49.994;8.660;2022-12-18T16:23:57;59.33;;;28.77;;
58643;SDS011;44411;49.994;8.660;2022-12-18T16:26:22;53.33;;;27.67;;
58643;SDS011;44411;49.994;8.660;2022-12-18T16:28:48;55.38;;;28.13;;
58643;SDS011;44411;49.994;8.660;2022-12-18T16:31:13;60.17;;;28.88;;
58643;SDS011;44411;49.994;8.660;2022-12-18T16:33:39;60.25;;;27.38;;
58643;SDS011;44411;49.994;8.660;2022-12-18T16:36:04;57.38;;;28.65;;
58643;SDS011;44411;49.994;8.660;2022-12-18T16:38:29;59.97;;;29.92;;
58643;SDS011;44411;49.994;8.660;2022-12-18T16:40:55;61.75;;;32.53;;
58643;SDS011;44411;49.994;8.660;2022-12-18T16:43:39;61.53;;;29.77;;
58643;SDS011;44411;49.994;8.660;2022-12-18T16:46:04;62.03;;;30.33;;
58643;SDS011;44411;49.994;8.660;2022-12-18T16:48:30;56.88;;;32.15;;
58643;SDS011;44411;49.994;8.660;2022-12-18T16:50:59;62.85;;;28.95;;
58643;SDS011;44411;49.994;8.660;2022-12-18T16:53:26;60.53;;;31.23;;
58643;SDS011;44411;49.994;8.660;2022-12-18T16:55:55;65.03;;;34.63;;
58643;SDS011;44411;49.994;8.660;2022-12-18T16:58:21;64.63;;;30.83;;
58643;SDS011;44411;49.994;8.660;2022-12-18T17:00:46;58.92;;;29.90;;
58643;SDS011;44411;49.994;8.660;2022-12-18T17:03:11;57.22;;;30.02;;
58643;SDS011;44411;49.994;8.660;2022-12-18T17:05:37;63.17;;;33.83;;
58643;SDS011;44411;49.994;8.660;2022-12-18T17:08:02;58.45;;;30.95;;
58643;SDS011;44411;49.994;8.660;2022-12-18T17:10:27;60.28;;;32.33;;
58643;SDS011;44411;49.994;8.660;2022-12-18T17:12:53;64.97;;;32.00;;
58643;SDS011;44411;49.994;8.660;2022-12-18T17:15:18;63.35;;;33.13;;
58643;SDS011;44411;49.994;8.660;2022-12-18T17:17:43;55.35;;;31.45;;
58643;SDS011;44411;49.994;8.660;2022-12-18T17:20:09;60.38;;;32.13;;